createdAt,value
2018-07-08T00:00:53.577Z,1008.79
2018-07-08T00:01:53.601Z,1008.83
2018-07-08T00:02:53.625Z,1008.82
2018-07-08T00:03:53.657Z,1008.81
2018-07-08T00:04:53.675Z,1008.79
2018-07-08T00:05:53.699Z,1008.81
2018-07-08T00:06:53.723Z,1008.81
2018-07-08T00:07:53.748Z,1008.82
2018-07-08T00:08:53.772Z,1008.82
2018-07-08T00:09:53.797Z,1008.77
2018-07-08T00:10:53.821Z,1008.79
2018-07-08T00:11:53.846Z,1008.78
2018-07-08T00:12:53.870Z,1008.78
2018-07-08T00:13:53.894Z,1008.8
2018-07-08T00:14:53.917Z,1008.73
2018-07-08T00:15:53.944Z,1008.77
2018-07-08T00:16:53.967Z,1008.74
2018-07-08T00:17:53.990Z,1008.76
2018-07-08T00:18:54.015Z,1008.75
2018-07-08T00:19:54.040Z,1008.69
2018-07-08T00:20:54.064Z,1008.73
2018-07-08T00:21:54.088Z,1008.71
2018-07-08T00:22:54.113Z,1008.7
2018-07-08T00:23:54.140Z,1008.7
2018-07-08T00:24:54.161Z,1008.75
2018-07-08T00:25:54.185Z,1008.72
2018-07-08T00:26:54.209Z,1008.77
2018-07-08T00:27:54.235Z,1008.77
2018-07-08T00:28:54.258Z,1008.79
2018-07-08T00:29:54.283Z,1008.77
2018-07-08T00:30:54.306Z,1008.78
2018-07-08T00:31:54.330Z,1008.8
2018-07-08T00:32:54.358Z,1008.82
2018-07-08T00:33:54.380Z,1008.8
2018-07-08T00:34:54.404Z,1008.79
2018-07-08T00:35:54.426Z,1008.78
2018-07-08T00:36:54.455Z,1008.78
2018-07-08T00:37:54.475Z,1008.8
2018-07-08T00:38:54.499Z,1008.77
2018-07-08T00:39:54.686Z,1008.77
2018-07-08T00:40:54.547Z,1008.79
2018-07-08T00:41:54.574Z,1008.81
2018-07-08T00:42:54.597Z,1008.81
2018-07-08T00:43:54.620Z,1008.79
2018-07-08T00:44:54.644Z,1008.79
2018-07-08T00:45:54.668Z,1008.8
2018-07-08T00:46:54.690Z,1008.82
2018-07-08T00:47:54.717Z,1008.79
2018-07-08T00:48:54.738Z,1008.79
2018-07-08T00:49:54.763Z,1008.82
2018-07-08T00:50:54.787Z,1008.85
2018-07-08T00:51:54.811Z,1008.86
2018-07-08T00:52:54.835Z,1008.82
2018-07-08T00:53:54.865Z,1008.81
2018-07-08T00:54:54.883Z,1008.84
2018-07-08T00:55:54.906Z,1008.82
2018-07-08T00:56:54.932Z,1008.81
2018-07-08T00:57:54.955Z,1008.82
2018-07-08T00:58:54.979Z,1008.8
2018-07-08T00:59:55.003Z,1008.86
2018-07-08T01:00:55.028Z,1008.85
2018-07-08T01:01:55.052Z,1008.85
2018-07-08T01:02:55.075Z,1008.85
2018-07-08T01:03:55.106Z,1008.84
2018-07-08T01:04:55.122Z,1008.86
2018-07-08T01:05:55.146Z,1008.83
2018-07-08T01:06:55.170Z,1008.86
2018-07-08T01:07:55.192Z,1008.89
2018-07-08T01:08:55.217Z,1008.88
2018-07-08T01:09:55.245Z,1008.89
2018-07-08T01:10:55.268Z,1008.88
2018-07-08T01:11:55.286Z,1008.86
2018-07-08T01:12:55.312Z,1008.9
2018-07-08T01:13:55.345Z,1008.9
2018-07-08T01:14:55.360Z,1008.93
2018-07-08T01:15:55.383Z,1008.89
2018-07-08T01:16:55.407Z,1008.93
2018-07-08T01:17:55.431Z,1008.89
2018-07-08T01:18:55.454Z,1008.88
2018-07-08T01:19:55.478Z,1008.89
2018-07-08T01:20:55.501Z,1008.9
2018-07-08T01:21:55.525Z,1008.92
2018-07-08T01:22:55.551Z,1008.91
2018-07-08T01:23:55.579Z,1008.93
2018-07-08T01:24:55.597Z,1008.95
2018-07-08T01:25:55.620Z,1008.94
2018-07-08T01:26:55.643Z,1008.99
2018-07-08T01:27:55.667Z,1008.97
2018-07-08T01:28:55.689Z,1008.95
2018-07-08T01:29:55.713Z,1008.97
2018-07-08T01:30:55.737Z,1008.97
2018-07-08T01:31:55.767Z,1008.98
2018-07-08T01:32:55.785Z,1008.98
2018-07-08T01:33:55.807Z,1009.04
2018-07-08T01:34:55.832Z,1009.01
2018-07-08T01:35:55.855Z,1009.03
2018-07-08T01:36:55.879Z,1009.03
2018-07-08T01:37:55.901Z,1008.97
2018-07-08T01:38:55.926Z,1009
2018-07-08T01:39:55.949Z,1008.97
2018-07-08T01:40:55.971Z,1008.99
2018-07-08T01:41:55.997Z,1008.98
2018-07-08T01:42:56.020Z,1008.97
2018-07-08T01:43:56.045Z,1008.98
2018-07-08T01:44:56.065Z,1008.99
2018-07-08T01:45:56.090Z,1008.98
2018-07-08T01:46:56.113Z,1008.98
2018-07-08T01:47:56.140Z,1009.03
2018-07-08T01:48:56.159Z,1008.99
2018-07-08T01:49:56.183Z,1009.03
2018-07-08T01:50:56.205Z,1009.01
2018-07-08T01:51:56.233Z,1009.01
2018-07-08T01:52:56.251Z,1008.98
2018-07-08T01:53:56.276Z,1008.98
2018-07-08T01:54:56.353Z,1008.98
2018-07-08T01:55:56.322Z,1008.97
2018-07-08T01:56:56.350Z,1009.01
2018-07-08T01:57:56.369Z,1009
2018-07-08T01:58:56.393Z,1009
2018-07-08T01:59:56.415Z,1009
2018-07-08T02:00:56.438Z,1008.97
2018-07-08T02:01:56.463Z,1009
2018-07-08T02:02:56.484Z,1008.99
2018-07-08T02:03:56.509Z,1008.99
2018-07-08T02:04:56.531Z,1008.98
2018-07-08T02:05:56.556Z,1008.98
2018-07-08T02:06:56.609Z,1008.99
2018-07-08T02:07:56.601Z,1008.98
2018-07-08T02:08:56.626Z,1009
2018-07-08T02:09:56.648Z,1009
2018-07-08T02:10:56.713Z,1009.03
2018-07-08T02:11:56.694Z,1009.01
2018-07-08T02:12:56.722Z,1009.01
2018-07-08T02:13:56.741Z,1008.99
2018-07-08T02:14:56.764Z,1009.02
2018-07-08T02:15:56.786Z,1009.02
2018-07-08T02:16:56.810Z,1009.03
2018-07-08T02:17:56.832Z,1009.02
2018-07-08T02:18:56.858Z,1009.02
2018-07-08T02:19:56.880Z,1009.04
2018-07-08T02:20:56.902Z,1009.01
2018-07-08T02:21:56.924Z,1008.97
2018-07-08T02:22:56.949Z,1008.98
2018-07-08T02:23:56.971Z,1009
2018-07-08T02:24:56.993Z,1009.01
2018-07-08T02:25:57.017Z,1009.02
2018-07-08T02:26:57.038Z,1009.02
2018-07-08T02:27:57.066Z,1009.05
2018-07-08T02:28:57.088Z,1009.07
2018-07-08T02:29:57.110Z,1009.15
2018-07-08T02:30:57.135Z,1009.13
2018-07-08T02:31:57.156Z,1009.12
2018-07-08T02:32:57.180Z,1009.14
2018-07-08T02:33:57.204Z,1009.15
2018-07-08T02:34:57.226Z,1009.15
2018-07-08T02:35:57.260Z,1009.19
2018-07-08T02:36:57.273Z,1009.18
2018-07-08T02:37:57.294Z,1009.2
2018-07-08T02:38:57.330Z,1009.18
2018-07-08T02:39:57.340Z,1009.19
2018-07-08T02:40:57.365Z,1009.19
2018-07-08T02:41:57.394Z,1009.22
2018-07-08T02:42:57.408Z,1009.21
2018-07-08T02:43:57.432Z,1009.16
2018-07-08T02:44:57.455Z,1009.21
2018-07-08T02:45:57.482Z,1009.2
2018-07-08T02:46:57.500Z,1009.25
2018-07-08T02:47:57.523Z,1009.22
2018-07-08T02:48:57.545Z,1009.23
2018-07-08T02:49:57.571Z,1009.22
2018-07-08T02:50:57.592Z,1009.25
2018-07-08T02:51:57.615Z,1009.23
2018-07-08T02:52:57.638Z,1009.28
2018-07-08T02:53:57.661Z,1009.25
2018-07-08T02:54:57.747Z,1009.28
2018-07-08T02:55:57.706Z,1009.28
2018-07-08T02:56:57.731Z,1009.27
2018-07-08T02:57:57.750Z,1009.27
2018-07-08T02:58:57.774Z,1009.29
2018-07-08T02:59:57.796Z,1009.27
2018-07-08T03:00:57.821Z,1009.26
2018-07-08T03:01:57.842Z,1009.29
2018-07-08T03:02:57.866Z,1009.29
2018-07-08T03:03:57.887Z,1009.28
2018-07-08T03:04:57.912Z,1009.27
2018-07-08T03:05:57.935Z,1009.27
2018-07-08T03:06:57.960Z,1009.29
2018-07-08T03:07:57.982Z,1009.28
2018-07-08T03:08:58.006Z,1009.29
2018-07-08T03:09:58.024Z,1009.28
2018-07-08T03:10:58.047Z,1009.37
2018-07-08T03:11:58.070Z,1009.35
2018-07-08T03:12:58.090Z,1009.38
2018-07-08T03:13:58.114Z,1009.38
2018-07-08T03:14:58.136Z,1009.33
2018-07-08T03:15:58.159Z,1009.33
2018-07-08T03:16:58.181Z,1009.4
2018-07-08T03:17:58.206Z,1009.4
2018-07-08T03:18:58.227Z,1009.38
2018-07-08T03:19:58.250Z,1009.38
2018-07-08T03:20:58.272Z,1009.41
2018-07-08T03:21:58.295Z,1009.38
2018-07-08T03:22:58.316Z,1009.41
2018-07-08T03:23:58.348Z,1009.36
2018-07-08T03:24:58.362Z,1009.35
2018-07-08T03:25:58.386Z,1009.36
2018-07-08T03:26:58.406Z,1009.33
2018-07-08T03:27:58.429Z,1009.31
2018-07-08T03:28:58.452Z,1009.27
2018-07-08T03:29:58.476Z,1009.31
2018-07-08T03:30:58.501Z,1009.32
2018-07-08T03:31:58.521Z,1009.28
2018-07-08T03:32:58.542Z,1009.31
2018-07-08T03:33:58.565Z,1009.29
2018-07-08T03:34:58.587Z,1009.32
2018-07-08T03:35:58.610Z,1009.26
2018-07-08T03:36:58.632Z,1009.29
2018-07-08T03:37:58.673Z,1009.29
2018-07-08T03:38:58.677Z,1009.22
2018-07-08T03:39:58.710Z,1009.25
2018-07-08T03:40:58.722Z,1009.28
2018-07-08T03:41:58.743Z,1009.3
2018-07-08T03:42:58.765Z,1009.31
2018-07-08T03:43:58.789Z,1009.3
2018-07-08T03:44:58.818Z,1009.28
2018-07-08T03:45:58.833Z,1009.34
2018-07-08T03:46:58.855Z,1009.32
2018-07-08T03:47:58.878Z,1009.36
2018-07-08T03:48:58.900Z,1009.36
2018-07-08T03:49:58.929Z,1009.38
2018-07-08T03:50:58.948Z,1009.34
2018-07-08T03:51:58.968Z,1009.35
2018-07-08T03:52:58.990Z,1009.37
2018-07-08T03:53:59.018Z,1009.4
2018-07-08T03:54:59.036Z,1009.42
2018-07-08T03:55:59.061Z,1009.43
2018-07-08T03:56:59.089Z,1009.44
2018-07-08T03:57:59.101Z,1009.43
2018-07-08T03:58:59.124Z,1009.4
2018-07-08T03:59:59.144Z,1009.44
2018-07-08T04:00:59.168Z,1009.44
2018-07-08T04:01:59.193Z,1009.42
2018-07-08T04:02:59.217Z,1009.42
2018-07-08T04:03:59.234Z,1009.42
2018-07-08T04:04:59.257Z,1009.41
2018-07-08T04:05:59.280Z,1009.39
2018-07-08T04:06:59.303Z,1009.43
2018-07-08T04:07:59.326Z,1009.43
2018-07-08T04:08:59.350Z,1009.42
2018-07-08T04:09:59.372Z,1009.43
2018-07-08T04:10:59.392Z,1009.42
2018-07-08T04:11:59.414Z,1009.47
2018-07-08T04:12:59.441Z,1009.44
2018-07-08T04:13:59.461Z,1009.43
2018-07-08T04:14:59.493Z,1009.47
2018-07-08T04:15:59.505Z,1009.44
2018-07-08T04:16:59.526Z,1009.45
2018-07-08T04:17:59.561Z,1009.45
2018-07-08T04:18:59.569Z,1009.47
2018-07-08T04:19:59.604Z,1009.49
2018-07-08T04:20:59.614Z,1009.45
2018-07-08T04:21:59.635Z,1009.47
2018-07-08T04:22:59.657Z,1009.47
2018-07-08T04:23:59.682Z,1009.47
2018-07-08T04:24:59.703Z,1009.5
2018-07-08T04:25:59.725Z,1009.45
2018-07-08T04:26:59.748Z,1009.48
2018-07-08T04:27:59.769Z,1009.5
2018-07-08T04:28:59.790Z,1009.48
2018-07-08T04:29:59.814Z,1009.52
2018-07-08T04:30:59.838Z,1009.51
2018-07-08T04:31:59.857Z,1009.53
2018-07-08T04:32:59.880Z,1009.52
2018-07-08T04:33:59.904Z,1009.53
2018-07-08T04:34:59.924Z,1009.5
2018-07-08T04:35:59.947Z,1009.49
2018-07-08T04:36:59.968Z,1009.52
2018-07-08T04:37:59.989Z,1009.51
2018-07-08T04:39:00.014Z,1009.52
2018-07-08T04:40:00.036Z,1009.52
2018-07-08T04:41:00.058Z,1009.56
2018-07-08T04:42:00.088Z,1009.52
2018-07-08T04:43:00.100Z,1009.55
2018-07-08T04:44:00.122Z,1009.56
2018-07-08T04:45:00.145Z,1009.61
2018-07-08T04:46:00.170Z,1009.58
2018-07-08T04:47:00.190Z,1009.6
2018-07-08T04:48:00.211Z,1009.61
2018-07-08T04:49:00.233Z,1009.57
2018-07-08T04:50:00.254Z,1009.59
2018-07-08T04:51:00.277Z,1009.58
2018-07-08T04:52:00.299Z,1009.57
2018-07-08T04:53:00.341Z,1009.59
2018-07-08T04:54:00.344Z,1009.6
2018-07-08T04:55:00.364Z,1009.64
2018-07-08T04:56:00.389Z,1009.66
2018-07-08T04:57:00.409Z,1009.66
2018-07-08T04:58:00.435Z,1009.65
2018-07-08T04:59:00.527Z,1009.69
2018-07-08T05:00:00.476Z,1009.66
2018-07-08T05:01:00.659Z,1009.69
2018-07-08T05:02:00.519Z,1009.66
2018-07-08T05:03:00.542Z,1009.69
2018-07-08T05:04:00.569Z,1009.68
2018-07-08T05:05:00.586Z,1009.65
2018-07-08T05:06:00.618Z,1009.63
2018-07-08T05:07:00.629Z,1009.68
2018-07-08T05:08:00.653Z,1009.66
2018-07-08T05:09:00.675Z,1009.64
2018-07-08T05:10:00.701Z,1009.67
2018-07-08T05:11:00.717Z,1009.68
2018-07-08T05:12:00.748Z,1009.66
2018-07-08T05:13:00.765Z,1009.68
2018-07-08T05:14:00.787Z,1009.67
2018-07-08T05:15:00.806Z,1009.72
2018-07-08T05:16:00.835Z,1009.7
2018-07-08T05:17:00.852Z,1009.75
2018-07-08T05:18:00.872Z,1009.73
2018-07-08T05:19:00.898Z,1009.74
2018-07-08T05:20:00.920Z,1009.72
2018-07-08T05:21:00.938Z,1009.72
2018-07-08T05:22:00.960Z,1009.74
2018-07-08T05:23:00.982Z,1009.76
2018-07-08T05:24:01.006Z,1009.74
2018-07-08T05:25:01.028Z,1009.77
2018-07-08T05:26:01.054Z,1009.78
2018-07-08T05:27:01.072Z,1009.76
2018-07-08T05:28:01.093Z,1009.74
2018-07-08T05:29:01.122Z,1009.77
2018-07-08T05:30:01.141Z,1009.72
2018-07-08T05:31:01.166Z,1009.72
2018-07-08T05:32:01.186Z,1009.77
2018-07-08T05:33:01.227Z,1009.7
2018-07-08T05:34:01.224Z,1009.66
2018-07-08T05:35:01.245Z,1009.65
2018-07-08T05:36:01.268Z,1009.64
2018-07-08T05:37:01.290Z,1009.65
2018-07-08T05:38:01.317Z,1009.68
2018-07-08T05:39:01.339Z,1009.67
2018-07-08T05:40:01.358Z,1009.64
2018-07-08T05:41:01.379Z,1009.66
2018-07-08T05:42:01.401Z,1009.69
2018-07-08T05:43:01.423Z,1009.66
2018-07-08T05:44:01.445Z,1009.66
2018-07-08T05:45:01.468Z,1009.68
2018-07-08T05:46:01.490Z,1009.67
2018-07-08T05:47:01.515Z,1009.65
2018-07-08T05:48:01.536Z,1009.67
2018-07-08T05:49:01.559Z,1009.68
2018-07-08T05:50:01.579Z,1009.72
2018-07-08T05:51:01.601Z,1009.7
2018-07-08T05:52:01.623Z,1009.74
2018-07-08T05:53:01.644Z,1009.72
2018-07-08T05:54:01.666Z,1009.72
2018-07-08T05:55:01.689Z,1009.75
2018-07-08T05:56:01.711Z,1009.78
2018-07-08T05:57:01.731Z,1009.77
2018-07-08T05:58:01.755Z,1009.72
2018-07-08T05:59:01.799Z,1009.76
2018-07-08T06:00:01.801Z,1009.75
2018-07-08T06:01:01.821Z,1009.72
2018-07-08T06:02:01.842Z,1009.76
2018-07-08T06:03:01.865Z,1009.74
2018-07-08T06:04:01.887Z,1009.79
2018-07-08T06:05:01.912Z,1009.77
2018-07-08T06:06:01.931Z,1009.76
2018-07-08T06:07:01.954Z,1009.76
2018-07-08T06:08:01.979Z,1009.74
2018-07-08T06:09:01.999Z,1009.75
2018-07-08T06:10:02.020Z,1009.74
2018-07-08T06:11:02.046Z,1009.72
2018-07-08T06:12:02.065Z,1009.75
2018-07-08T06:13:02.087Z,1009.74
2018-07-08T06:14:02.126Z,1009.78
2018-07-08T06:15:02.130Z,1009.73
2018-07-08T06:16:02.160Z,1009.77
2018-07-08T06:17:02.180Z,1009.76
2018-07-08T06:18:02.198Z,1009.71
2018-07-08T06:19:02.219Z,1009.75
2018-07-08T06:20:02.243Z,1009.72
2018-07-08T06:21:02.264Z,1009.72
2018-07-08T06:22:02.285Z,1009.71
2018-07-08T06:23:02.308Z,1009.7
2018-07-08T06:24:02.332Z,1009.71
2018-07-08T06:25:02.354Z,1009.69
2018-07-08T06:26:02.409Z,1009.69
2018-07-08T06:27:02.402Z,1009.69
2018-07-08T06:28:02.420Z,1009.66
2018-07-08T06:29:02.442Z,1009.71
2018-07-08T06:30:02.464Z,1009.68
2018-07-08T06:31:02.486Z,1009.7
2018-07-08T06:32:02.509Z,1009.67
2018-07-08T06:33:02.532Z,1009.67
2018-07-08T06:34:02.555Z,1009.7
2018-07-08T06:35:02.579Z,1009.72
2018-07-08T06:36:02.607Z,1009.77
2018-07-08T06:37:02.620Z,1009.76
2018-07-08T06:38:02.643Z,1009.76
2018-07-08T06:39:02.666Z,1009.74
2018-07-08T06:40:02.688Z,1009.74
2018-07-08T06:41:02.709Z,1009.78
2018-07-08T06:42:02.733Z,1009.75
2018-07-08T06:43:02.755Z,1009.79
2018-07-08T06:44:02.853Z,1009.75
2018-07-08T06:45:02.800Z,1009.76
2018-07-08T06:46:02.824Z,1009.76
2018-07-08T06:47:02.845Z,1009.79
2018-07-08T06:48:02.866Z,1009.8
2018-07-08T06:49:03.019Z,1009.79
2018-07-08T06:50:02.916Z,1009.82
2018-07-08T06:51:02.976Z,1009.85
2018-07-08T06:52:02.984Z,1009.8
2018-07-08T06:53:02.980Z,1009.79
2018-07-08T06:54:03.004Z,1009.76
2018-07-08T06:55:03.026Z,1009.77
2018-07-08T06:56:03.048Z,1009.76
2018-07-08T06:57:03.071Z,1009.73
2018-07-08T06:58:03.094Z,1009.76
2018-07-08T06:59:03.116Z,1009.76
2018-07-08T07:00:03.138Z,1009.76
2018-07-08T07:01:03.161Z,1009.79
2018-07-08T07:02:03.183Z,1009.77
2018-07-08T07:03:03.206Z,1009.73
2018-07-08T07:04:03.228Z,1009.73
2018-07-08T07:05:03.252Z,1009.76
2018-07-08T07:06:03.276Z,1009.77
2018-07-08T07:07:03.297Z,1009.74
2018-07-08T07:08:03.320Z,1009.76
2018-07-08T07:09:03.344Z,1009.75
2018-07-08T07:10:03.364Z,1009.74
2018-07-08T07:11:03.387Z,1009.74
2018-07-08T07:12:03.413Z,1009.76
2018-07-08T07:13:03.435Z,1009.74
2018-07-08T07:14:03.458Z,1009.72
2018-07-08T07:15:03.481Z,1009.77
2018-07-08T07:16:03.502Z,1009.74
2018-07-08T07:17:03.525Z,1009.74
2018-07-08T07:18:03.549Z,1009.75
2018-07-08T07:19:03.570Z,1009.73
2018-07-08T07:20:03.595Z,1009.77
2018-07-08T07:21:03.617Z,1009.76
2018-07-08T07:22:03.639Z,1009.79
2018-07-08T07:23:03.682Z,1009.8
2018-07-08T07:24:03.685Z,1009.81
2018-07-08T07:25:03.707Z,1009.74
2018-07-08T07:26:03.733Z,1009.82
2018-07-08T07:27:03.755Z,1009.76
2018-07-08T07:28:03.779Z,1009.75
2018-07-08T07:29:03.801Z,1009.78
2018-07-08T07:30:03.823Z,1009.77
2018-07-08T07:31:03.847Z,1009.72
2018-07-08T07:32:03.868Z,1009.75
2018-07-08T07:33:03.892Z,1009.72
2018-07-08T07:34:03.916Z,1009.72
2018-07-08T07:35:03.939Z,1009.7
2018-07-08T07:36:03.960Z,1009.7
2018-07-08T07:37:04.052Z,1009.71
2018-07-08T07:38:04.010Z,1009.71
2018-07-08T07:39:04.031Z,1009.71
2018-07-08T07:40:04.053Z,1009.74
2018-07-08T07:41:04.076Z,1009.7
2018-07-08T07:42:04.099Z,1009.72
2018-07-08T07:43:04.122Z,1009.71
2018-07-08T07:44:04.145Z,1009.69
2018-07-08T07:45:04.170Z,1009.68
2018-07-08T07:46:04.193Z,1009.7
2018-07-08T07:47:04.216Z,1009.64
2018-07-08T07:48:04.238Z,1009.67
2018-07-08T07:49:04.263Z,1009.68
2018-07-08T07:50:04.284Z,1009.64
2018-07-08T07:51:04.309Z,1009.67
2018-07-08T07:52:04.331Z,1009.68
2018-07-08T07:53:04.356Z,1009.66
2018-07-08T07:54:04.378Z,1009.68
2018-07-08T07:55:04.402Z,1009.69
2018-07-08T07:56:04.427Z,1009.7
2018-07-08T07:57:04.452Z,1009.68
2018-07-08T07:58:04.472Z,1009.68
2018-07-08T07:59:04.558Z,1009.68
2018-07-08T08:00:04.571Z,1009.72
2018-07-08T08:01:04.540Z,1009.73
2018-07-08T08:02:04.568Z,1009.77
2018-07-08T08:03:04.588Z,1009.71
2018-07-08T08:04:04.617Z,1009.73
2018-07-08T08:05:04.633Z,1009.73
2018-07-08T08:06:04.658Z,1009.71
2018-07-08T08:07:04.681Z,1009.68
2018-07-08T08:08:04.705Z,1009.69
2018-07-08T08:09:04.729Z,1009.68
2018-07-08T08:10:04.752Z,1009.72
2018-07-08T08:11:04.775Z,1009.74
2018-07-08T08:12:04.798Z,1009.71
2018-07-08T08:13:04.866Z,1009.71
2018-07-08T08:14:04.850Z,1009.72
2018-07-08T08:15:04.868Z,1009.7
2018-07-08T08:16:04.892Z,1009.74
2018-07-08T08:17:04.917Z,1009.72
2018-07-08T08:18:04.942Z,1009.73
2018-07-08T08:19:04.964Z,1009.71
2018-07-08T08:20:04.985Z,1009.74
2018-07-08T08:21:05.044Z,1009.69
2018-07-08T08:22:05.034Z,1009.71
2018-07-08T08:23:05.059Z,1009.71
2018-07-08T08:24:05.083Z,1009.67
2018-07-08T08:25:05.108Z,1009.69
2018-07-08T08:26:05.128Z,1009.69
2018-07-08T08:27:05.154Z,1009.71
2018-07-08T08:28:05.176Z,1009.76
2018-07-08T08:29:05.200Z,1009.73
2018-07-08T08:30:05.222Z,1009.72
2018-07-08T08:31:05.247Z,1009.7
2018-07-08T08:32:05.274Z,1009.71
2018-07-08T08:33:05.296Z,1009.72
2018-07-08T08:34:05.318Z,1009.75
2018-07-08T08:35:05.344Z,1009.73
2018-07-08T08:36:05.367Z,1009.7
2018-07-08T08:37:05.391Z,1009.75
2018-07-08T08:38:05.427Z,1009.71
2018-07-08T08:39:05.441Z,1009.72
2018-07-08T08:40:05.467Z,1009.67
2018-07-08T08:41:05.491Z,1009.73
2018-07-08T08:42:05.511Z,1009.71
2018-07-08T08:43:05.535Z,1009.68
2018-07-08T08:44:05.561Z,1009.67
2018-07-08T08:45:05.585Z,1009.65
2018-07-08T08:46:05.612Z,1009.71
2018-07-08T08:47:05.637Z,1009.75
2018-07-08T08:48:05.662Z,1009.73
2018-07-08T08:49:05.714Z,1009.79
2018-07-08T08:50:05.706Z,1009.8
2018-07-08T08:51:05.764Z,1009.84
2018-07-08T08:52:05.756Z,1009.86
2018-07-08T08:53:05.782Z,1009.86
2018-07-08T08:54:05.806Z,1009.82
2018-07-08T08:55:05.829Z,1009.85
2018-07-08T08:56:05.855Z,1009.79
2018-07-08T08:57:05.880Z,1009.82
2018-07-08T08:58:05.910Z,1009.86
2018-07-08T08:59:05.930Z,1009.87
2018-07-08T09:00:05.953Z,1009.85
2018-07-08T09:01:06.039Z,1009.87
2018-07-08T09:02:06.004Z,1009.9
2018-07-08T09:03:06.028Z,1009.87
2018-07-08T09:04:06.053Z,1009.87
2018-07-08T09:05:06.198Z,1009.85
2018-07-08T09:06:06.102Z,1009.84
2018-07-08T09:07:06.180Z,1009.81
2018-07-08T09:08:06.152Z,1009.85
2018-07-08T09:09:06.176Z,1009.82
2018-07-08T09:10:06.202Z,1009.78
2018-07-08T09:11:06.228Z,1009.84
2018-07-08T09:12:06.255Z,1009.83
2018-07-08T09:13:06.278Z,1009.82
2018-07-08T09:14:06.301Z,1009.83
2018-07-08T09:15:06.342Z,1009.79
2018-07-08T09:16:06.354Z,1009.74
2018-07-08T09:17:06.381Z,1009.74
2018-07-08T09:18:06.403Z,1009.79
2018-07-08T09:19:06.430Z,1009.76
2018-07-08T09:20:06.453Z,1009.8
2018-07-08T09:21:06.479Z,1009.78
2018-07-08T09:22:06.613Z,1009.81
2018-07-08T09:23:06.536Z,1009.83
2018-07-08T09:24:06.588Z,1009.77
2018-07-08T09:25:06.581Z,1009.78
2018-07-08T09:26:06.605Z,1009.78
2018-07-08T09:27:06.631Z,1009.76
2018-07-08T09:28:06.657Z,1009.77
2018-07-08T09:29:06.685Z,1009.81
2018-07-08T09:30:06.706Z,1009.78
2018-07-08T09:31:06.734Z,1009.79
2018-07-08T09:32:06.758Z,1009.79
2018-07-08T09:33:06.789Z,1009.72
2018-07-08T09:34:06.810Z,1009.76
2018-07-08T09:35:06.835Z,1009.74
2018-07-08T09:36:06.861Z,1009.75
2018-07-08T09:37:06.886Z,1009.73
2018-07-08T09:38:06.912Z,1009.74
2018-07-08T09:39:07.016Z,1009.74
2018-07-08T09:40:06.963Z,1009.72
2018-07-08T09:41:06.989Z,1009.71
2018-07-08T09:42:07.014Z,1009.73
2018-07-08T09:43:07.041Z,1009.72
2018-07-08T09:44:07.066Z,1009.77
2018-07-08T09:45:07.096Z,1009.72
2018-07-08T09:46:07.118Z,1009.75
2018-07-08T09:47:07.152Z,1009.75
2018-07-08T09:48:07.169Z,1009.77
2018-07-08T09:49:07.196Z,1009.79
2018-07-08T09:50:07.222Z,1009.78
2018-07-08T09:51:07.247Z,1009.75
2018-07-08T09:52:07.272Z,1009.77
2018-07-08T09:53:07.298Z,1009.73
2018-07-08T09:54:07.325Z,1009.71
2018-07-08T09:55:07.351Z,1009.7
2018-07-08T09:56:07.377Z,1009.79
2018-07-08T09:57:07.405Z,1009.78
2018-07-08T09:58:07.621Z,1009.77
2018-07-08T09:59:07.479Z,1009.75
2018-07-08T10:00:07.483Z,1009.76
2018-07-08T10:01:07.508Z,1009.77
2018-07-08T10:02:07.533Z,1009.75
2018-07-08T10:03:07.562Z,1009.74
2018-07-08T10:04:07.585Z,1009.73
2018-07-08T10:05:07.613Z,1009.79
2018-07-08T10:06:07.733Z,1009.77
2018-07-08T10:07:07.666Z,1009.77
2018-07-08T10:08:07.692Z,1009.79
2018-07-08T10:09:07.717Z,1009.76
2018-07-08T10:10:07.745Z,1009.73
2018-07-08T10:11:07.770Z,1009.68
2018-07-08T10:12:07.799Z,1009.77
2018-07-08T10:13:07.824Z,1009.74
2018-07-08T10:14:07.963Z,1009.8
2018-07-08T10:15:07.877Z,1009.83
2018-07-08T10:16:07.908Z,1009.81
2018-07-08T10:17:07.930Z,1009.82
2018-07-08T10:18:07.957Z,1009.84
2018-07-08T10:19:07.984Z,1009.84
2018-07-08T10:20:08.093Z,1009.87
2018-07-08T10:21:08.037Z,1009.87
2018-07-08T10:22:08.068Z,1009.84
2018-07-08T10:23:08.091Z,1009.89
2018-07-08T10:24:08.117Z,1009.86
2018-07-08T10:25:08.144Z,1009.85
2018-07-08T10:26:08.171Z,1009.85
2018-07-08T10:27:08.226Z,1009.78
2018-07-08T10:28:08.299Z,1009.78
2018-07-08T10:29:08.256Z,1009.75
2018-07-08T10:30:08.281Z,1009.78
2018-07-08T10:31:08.307Z,1009.73
2018-07-08T10:32:08.346Z,1009.78
2018-07-08T10:33:08.362Z,1009.74
2018-07-08T10:34:08.393Z,1009.81
2018-07-08T10:35:08.464Z,1009.77
2018-07-08T10:36:08.443Z,1009.8
2018-07-08T10:37:08.472Z,1009.81
2018-07-08T10:38:08.581Z,1009.77
2018-07-08T10:39:08.527Z,1009.83
2018-07-08T10:40:08.553Z,1009.77
2018-07-08T10:41:08.599Z,1009.78
2018-07-08T10:42:08.610Z,1009.76
2018-07-08T10:43:08.636Z,1009.75
2018-07-08T10:44:08.663Z,1009.74
2018-07-08T10:45:08.690Z,1009.75
2018-07-08T10:46:08.718Z,1009.8
2018-07-08T10:47:08.745Z,1009.76
2018-07-08T10:48:08.773Z,1009.8
2018-07-08T10:49:08.800Z,1009.79
2018-07-08T10:50:08.842Z,1009.78
2018-07-08T10:51:08.857Z,1009.77
2018-07-08T10:52:08.884Z,1009.74
2018-07-08T10:53:08.911Z,1009.74
2018-07-08T10:54:08.941Z,1009.72
2018-07-08T10:55:08.967Z,1009.7
2018-07-08T10:56:08.995Z,1009.7
2018-07-08T10:57:09.024Z,1009.7
2018-07-08T10:58:09.054Z,1009.71
2018-07-08T10:59:09.174Z,1009.69
2018-07-08T11:00:09.107Z,1009.67
2018-07-08T11:01:09.135Z,1009.64
2018-07-08T11:02:09.163Z,1009.66
2018-07-08T11:03:09.195Z,1009.55
2018-07-08T11:04:09.224Z,1009.59
2018-07-08T11:05:09.248Z,1009.6
2018-07-08T11:06:09.278Z,1009.63
2018-07-08T11:07:09.308Z,1009.64
2018-07-08T11:08:09.333Z,1009.62
2018-07-08T11:09:09.361Z,1009.59
2018-07-08T11:10:09.390Z,1009.53
2018-07-08T11:11:09.416Z,1009.59
2018-07-08T11:12:09.447Z,1009.59
2018-07-08T11:13:09.475Z,1009.59
2018-07-08T11:14:09.503Z,1009.53
2018-07-08T11:15:09.530Z,1009.55
2018-07-08T11:16:09.560Z,1009.47
2018-07-08T11:17:09.590Z,1009.46
2018-07-08T11:18:09.617Z,1009.46
2018-07-08T11:19:09.645Z,1009.42
2018-07-08T11:20:09.674Z,1009.44
2018-07-08T11:21:09.705Z,1009.45
2018-07-08T11:22:09.731Z,1009.45
2018-07-08T11:23:09.761Z,1009.45
2018-07-08T11:24:09.788Z,1009.41
2018-07-08T11:25:09.818Z,1009.47
2018-07-08T11:26:09.846Z,1009.42
2018-07-08T11:27:09.875Z,1009.41
2018-07-08T11:28:09.904Z,1009.38
2018-07-08T11:29:09.935Z,1009.44
2018-07-08T11:30:09.962Z,1009.46
2018-07-08T11:31:09.992Z,1009.48
2018-07-08T11:32:10.021Z,1009.43
2018-07-08T11:33:10.048Z,1009.44
2018-07-08T11:34:10.079Z,1009.4
2018-07-08T11:35:10.109Z,1009.35
2018-07-08T11:36:10.137Z,1009.39
2018-07-08T11:37:10.167Z,1009.37
2018-07-08T11:38:10.195Z,1009.38
2018-07-08T11:39:10.313Z,1009.41
2018-07-08T11:40:10.254Z,1009.41
2018-07-08T11:41:10.284Z,1009.44
2018-07-08T11:42:10.313Z,1009.42
2018-07-08T11:43:10.348Z,1009.42
2018-07-08T11:44:10.371Z,1009.41
2018-07-08T11:45:10.407Z,1009.35
2018-07-08T11:46:10.431Z,1009.43
2018-07-08T11:47:10.461Z,1009.37
2018-07-08T11:48:10.490Z,1009.36
2018-07-08T11:49:10.519Z,1009.35
2018-07-08T11:50:10.551Z,1009.34
2018-07-08T11:51:10.580Z,1009.37
2018-07-08T11:52:10.610Z,1009.37
2018-07-08T11:53:10.637Z,1009.4
2018-07-08T11:54:10.668Z,1009.4
2018-07-08T11:55:10.698Z,1009.36
2018-07-08T11:56:10.730Z,1009.41
2018-07-08T11:57:10.758Z,1009.44
2018-07-08T11:58:10.790Z,1009.37
2018-07-08T11:59:10.819Z,1009.36
2018-07-08T12:00:10.849Z,1009.38
2018-07-08T12:01:10.878Z,1009.39
2018-07-08T12:02:10.971Z,1009.37
2018-07-08T12:03:10.938Z,1009.42
2018-07-08T12:04:10.970Z,1009.47
2018-07-08T12:05:11.038Z,1009.49
2018-07-08T12:06:11.030Z,1009.5
2018-07-08T12:07:11.064Z,1009.47
2018-07-08T12:08:11.091Z,1009.45
2018-07-08T12:09:11.122Z,1009.46